createdAt,value
2022-09-05T00:01:27.807Z,17.80
2022-09-05T00:04:25.054Z,17.70
2022-09-05T00:07:00.942Z,17.70
2022-09-05T00:09:55.247Z,17.60
2022-09-05T00:12:25.581Z,17.60
2022-09-05T00:15:15.097Z,17.50
2022-09-05T00:19:46.563Z,17.40
2022-09-05T00:24:27.843Z,17.40
2022-09-05T00:24:45.688Z,17.40
2022-09-05T00:26:54.428Z,17.30
2022-09-05T00:31:06.251Z,17.30
2022-09-05T00:32:44.382Z,17.20
2022-09-05T00:35:36.667Z,17.20
2022-09-05T00:38:15.835Z,17.20
2022-09-05T00:40:48.455Z,17.10
2022-09-05T00:43:21.357Z,17.10
2022-09-05T00:45:51.759Z,17.10
2022-09-05T00:48:30.797Z,17.10
2022-09-05T00:51:09.478Z,17.00
2022-09-05T00:53:46.118Z,17.00
2022-09-05T00:56:47.228Z,16.90
2022-09-05T00:59:58.941Z,17.00
2022-09-05T01:02:51.296Z,16.90
2022-09-05T01:05:32.835Z,16.90
2022-09-05T01:08:20.528Z,16.90
2022-09-05T01:10:57.217Z,16.80
2022-09-05T01:13:37.318Z,16.90
2022-09-05T01:16:17.020Z,16.80
2022-09-05T01:18:54.947Z,16.80
2022-09-05T01:21:49.547Z,16.80
2022-09-05T01:24:55.538Z,16.80
2022-09-05T01:29:16.557Z,16.90
2022-09-05T01:30:49.993Z,16.80
2022-09-05T01:33:32.807Z,16.80
2022-09-05T01:36:33.348Z,16.80
2022-09-05T01:40:11.569Z,16.70
2022-09-05T01:42:02.417Z,16.60
2022-09-05T01:44:56.668Z,16.60
2022-09-05T01:47:35.588Z,16.50
2022-09-05T01:50:18.400Z,16.50
2022-09-05T01:53:00.966Z,16.50
2022-09-05T01:56:04.053Z,16.50
2022-09-05T01:58:45.597Z,16.50
2022-09-05T02:01:26.999Z,16.40
2022-09-05T02:04:31.877Z,16.40
2022-09-05T02:07:19.408Z,16.40
2022-09-05T02:10:28.695Z,16.30
2022-09-05T02:13:03.487Z,16.30
2022-09-05T02:15:51.179Z,16.30
2022-09-05T02:18:42.357Z,16.20
2022-09-05T02:21:18.917Z,16.30
2022-09-05T02:23:54.897Z,16.30
2022-09-05T02:26:31.519Z,16.20
2022-09-05T02:29:04.298Z,16.20
2022-09-05T02:31:43.240Z,16.10
2022-09-05T02:34:18.938Z,16.10
2022-09-05T02:36:52.995Z,16.10
2022-09-05T02:45:02.366Z,16.10
2022-09-05T02:45:13.413Z,16.10
2022-09-05T02:45:35.218Z,16.10
2022-09-05T02:48:16.877Z,16.10
2022-09-05T02:57:24.701Z,16.00
2022-09-05T02:57:39.465Z,16.00
2022-09-05T02:57:46.439Z,16.10
2022-09-05T03:00:04.918Z,16.00
2022-09-05T03:02:54.533Z,16.00
2022-09-05T03:05:28.218Z,16.00
2022-09-05T03:08:28.821Z,15.90
2022-09-05T03:11:38.982Z,16.00
2022-09-05T03:14:47.690Z,15.90
2022-09-05T03:17:44.204Z,15.80
2022-09-05T03:21:08.876Z,15.80
2022-09-05T03:24:18.910Z,15.80
2022-09-05T03:27:29.377Z,15.80
2022-09-05T03:30:13.440Z,15.80
2022-09-05T03:33:01.150Z,15.80
2022-09-05T03:36:11.070Z,15.80
2022-09-05T03:39:19.214Z,15.70
2022-09-05T03:42:18.288Z,15.80
2022-09-05T03:45:16.951Z,15.70
2022-09-05T03:48:44.561Z,15.70
2022-09-05T03:57:14.380Z,15.70
2022-09-05T03:57:26.663Z,15.70
2022-09-05T03:58:16.749Z,15.60
2022-09-05T04:01:10.686Z,15.60
2022-09-05T04:08:06.279Z,15.60
2022-09-05T04:08:16.374Z,15.60
2022-09-05T04:09:51.707Z,15.60
2022-09-05T04:12:23.730Z,15.50
2022-09-05T04:14:57.341Z,15.50
2022-09-05T04:17:34.000Z,15.50
2022-09-05T04:20:09.699Z,15.50
2022-09-05T04:23:02.099Z,15.50
2022-09-05T04:25:44.476Z,15.50
2022-09-05T04:28:23.550Z,15.50
2022-09-05T04:30:58.718Z,15.50
2022-09-05T04:33:36.605Z,15.50
2022-09-05T04:36:18.105Z,15.50
2022-09-05T04:39:05.940Z,15.50
2022-09-05T04:41:40.531Z,15.50
2022-09-05T04:44:15.531Z,15.50
2022-09-05T04:46:49.155Z,15.50
2022-09-05T04:49:24.631Z,15.50
2022-09-05T04:52:31.558Z,15.50
2022-09-05T04:55:08.378Z,15.50
2022-09-05T04:57:41.461Z,15.50
2022-09-05T05:05:59.921Z,15.50
2022-09-05T05:06:09.766Z,15.50
2022-09-05T05:06:38.039Z,15.60
2022-09-05T05:09:01.721Z,15.60
2022-09-05T05:18:00.790Z,15.70
2022-09-05T05:18:03.938Z,15.80
2022-09-05T05:18:11.319Z,15.80
2022-09-05T05:20:43.055Z,15.80
2022-09-05T05:23:17.158Z,15.90
2022-09-05T05:25:52.269Z,15.90
2022-09-05T05:28:29.660Z,15.90
2022-09-05T05:31:09.623Z,16.00
2022-09-05T05:33:40.723Z,16.10
2022-09-05T05:36:18.001Z,16.20
2022-09-05T05:38:54.039Z,16.20
2022-09-05T05:41:27.881Z,16.30
2022-09-05T05:43:57.701Z,16.40
2022-09-05T05:46:35.793Z,16.40
2022-09-05T05:49:27.530Z,16.50
2022-09-05T05:52:13.970Z,16.60
2022-09-05T05:54:51.459Z,16.60
2022-09-05T05:58:04.058Z,16.70
2022-09-05T06:00:51.398Z,16.80
2022-09-05T06:03:56.973Z,16.80
2022-09-05T06:06:38.890Z,16.90
2022-09-05T06:14:56.141Z,17.00
2022-09-05T06:15:00.911Z,17.10
2022-09-05T06:16:47.733Z,17.20
2022-09-05T06:22:06.313Z,17.40
2022-09-05T06:23:36.676Z,17.50
2022-09-05T06:26:41.603Z,17.60
2022-09-05T06:29:34.561Z,17.70
2022-09-05T06:32:19.684Z,17.80
2022-09-05T06:35:16.620Z,17.90
2022-09-05T06:37:54.941Z,18.10
2022-09-05T06:40:32.171Z,18.20
2022-09-05T06:43:13.186Z,18.20
2022-09-05T06:46:05.859Z,18.30
2022-09-05T06:49:30.886Z,18.40
2022-09-05T06:52:28.302Z,18.50
2022-09-05T06:55:42.612Z,18.60
2022-09-05T06:58:51.939Z,18.80
2022-09-05T07:01:37.053Z,18.90
2022-09-05T07:05:23.072Z,19.00
2022-09-05T07:07:24.888Z,19.20
2022-09-05T07:10:22.182Z,19.30
2022-09-05T07:12:59.351Z,19.50
2022-09-05T07:15:38.514Z,19.80
2022-09-05T07:18:13.628Z,20.10
2022-09-05T07:21:16.673Z,20.30
2022-09-05T07:24:06.518Z,20.50
2022-09-05T07:26:54.035Z,20.80
2022-09-05T07:29:29.859Z,21.00
2022-09-05T07:32:02.748Z,21.20
2022-09-05T07:34:33.380Z,21.30
2022-09-05T07:37:15.302Z,21.30
2022-09-05T07:39:52.811Z,21.40
2022-09-05T07:42:26.270Z,21.40
2022-09-05T07:44:59.469Z,21.40
2022-09-05T07:47:32.902Z,21.40
2022-09-05T07:52:15.617Z,21.50
2022-09-05T07:56:52.990Z,21.50
2022-09-05T07:57:03.722Z,21.50
2022-09-05T07:58:50.652Z,21.50
2022-09-05T08:01:22.702Z,21.60
2022-09-05T08:04:00.366Z,21.90
2022-09-05T08:07:34.759Z,22.30
2022-09-05T08:10:06.719Z,22.80
2022-09-05T08:12:27.673Z,23.20
2022-09-05T08:15:03.852Z,23.50
2022-09-05T08:17:35.682Z,24.60
2022-09-05T08:20:18.705Z,25.80
2022-09-05T08:22:56.560Z,27.20
2022-09-05T08:25:43.658Z,28.30
2022-09-05T08:28:37.575Z,28.60
2022-09-05T08:31:14.554Z,28.50
2022-09-05T08:33:44.774Z,28.80
2022-09-05T08:36:29.840Z,29.50
2022-09-05T08:39:01.671Z,30.40
2022-09-05T08:41:49.738Z,31.50
2022-09-05T08:46:43.695Z,31.80
2022-09-05T08:47:26.129Z,31.60
2022-09-05T08:50:33.810Z,31.70
2022-09-05T08:53:26.885Z,32.50
2022-09-05T08:56:10.677Z,33.20
2022-09-05T08:59:32.336Z,33.90
2022-09-05T09:02:46.690Z,34.70
2022-09-05T09:05:03.215Z,34.30
2022-09-05T09:07:47.495Z,34.50
2022-09-05T09:10:31.106Z,34.40
2022-09-05T09:13:22.916Z,33.70
2022-09-05T09:16:00.865Z,33.70
2022-09-05T09:18:59.350Z,34.10
2022-09-05T09:21:36.820Z,34.80
2022-09-05T09:24:19.948Z,35.50
2022-09-05T09:26:54.954Z,35.70
2022-09-05T09:29:24.752Z,36.50
2022-09-05T09:32:09.680Z,37.10
2022-09-05T09:34:53.808Z,37.60
2022-09-05T09:37:55.347Z,38.00
2022-09-05T09:40:36.104Z,38.20
2022-09-05T09:43:16.000Z,38.30
2022-09-05T09:46:00.469Z,38.40
2022-09-05T09:48:53.058Z,38.30
2022-09-05T09:51:49.522Z,38.50
2022-09-05T09:54:56.326Z,38.50
2022-09-05T09:58:03.992Z,39.00
2022-09-05T10:00:51.692Z,39.30
2022-09-05T10:10:34.136Z,39.50
2022-09-05T10:10:54.453Z,39.50
2022-09-05T10:11:25.882Z,39.50
2022-09-05T10:14:02.522Z,39.00
2022-09-05T10:17:12.070Z,38.30
2022-09-05T10:20:11.188Z,38.30
2022-09-05T10:23:08.490Z,37.50
2022-09-05T10:26:23.389Z,36.40
2022-09-05T10:29:11.755Z,35.40
2022-09-05T10:35:09.966Z,34.70
2022-09-05T10:35:17.387Z,33.40
2022-09-05T10:37:54.386Z,33.20
2022-09-05T10:40:25.950Z,33.20
2022-09-05T10:43:01.206Z,32.90
2022-09-05T10:45:39.349Z,32.50
2022-09-05T10:48:15.278Z,32.60
2022-09-05T10:50:47.408Z,32.30
2022-09-05T10:53:39.763Z,33.00
2022-09-05T10:56:13.059Z,33.80
2022-09-05T11:02:15.581Z,33.70
2022-09-05T11:02:30.352Z,33.30
2022-09-05T11:04:56.521Z,33.50
2022-09-05T11:07:37.501Z,34.00
2022-09-05T11:10:12.827Z,34.70
2022-09-05T11:13:02.574Z,35.40
2022-09-05T11:15:36.502Z,35.80
2022-09-05T11:18:11.721Z,35.60
2022-09-05T11:20:54.459Z,35.80
2022-09-05T11:23:27.830Z,36.30
2022-09-05T11:26:02.231Z,36.60
2022-09-05T11:28:38.969Z,37.10
2022-09-05T11:31:59.169Z,37.30
2022-09-05T11:39:52.066Z,36.70
2022-09-05T11:39:54.233Z,37.30
2022-09-05T11:41:39.594Z,35.90
2022-09-05T11:44:34.890Z,35.90
2022-09-05T11:47:44.450Z,35.50
2022-09-05T11:50:57.371Z,34.70
2022-09-05T11:54:05.041Z,34.20
2022-09-05T11:57:02.209Z,33.10
2022-09-05T12:00:30.650Z,31.80
2022-09-05T12:03:57.402Z,30.80
2022-09-05T12:06:49.702Z,30.00
2022-09-05T12:09:31.950Z,29.40
2022-09-05T12:12:32.766Z,28.90
2022-09-05T12:15:34.576Z,28.40
2022-09-05T12:18:19.276Z,28.00
2022-09-05T12:21:19.553Z,27.70
2022-09-05T12:25:16.710Z,27.50
2022-09-05T12:27:39.155Z,27.20
2022-09-05T12:29:48.587Z,27.10
2022-09-05T12:33:58.278Z,26.90
2022-09-05T12:36:07.312Z,26.80
2022-09-05T12:40:52.046Z,26.70
2022-09-05T12:42:10.625Z,26.80
2022-09-05T12:44:45.272Z,27.20
2022-09-05T12:47:16.793Z,27.50
2022-09-05T12:50:03.315Z,27.50
2022-09-05T12:52:46.859Z,27.60
2022-09-05T12:55:27.470Z,28.00
2022-09-05T13:02:56.001Z,28.60
2022-09-05T13:03:02.511Z,29.00
2022-09-05T13:04:15.674Z,29.40
2022-09-05T13:06:42.584Z,30.40
2022-09-05T13:09:22.639Z,31.60
2022-09-05T13:14:56.827Z,32.50
2022-09-05T13:15:21.978Z,32.90
2022-09-05T13:18:00.589Z,33.30
2022-09-05T13:20:36.985Z,33.90
2022-09-05T13:23:20.253Z,34.50
2022-09-05T13:25:58.618Z,35.00
2022-09-05T13:28:35.517Z,35.50
2022-09-05T13:37:19.189Z,35.80
2022-09-05T13:38:14.431Z,36.40
2022-09-05T13:38:29.240Z,36.10
2022-09-05T13:39:49.393Z,36.50
2022-09-05T13:42:21.680Z,36.30
2022-09-05T13:44:54.080Z,36.30
2022-09-05T13:47:51.170Z,36.30
2022-09-05T13:50:27.230Z,35.80
2022-09-05T13:53:00.630Z,35.60
2022-09-05T13:55:41.679Z,35.30
2022-09-05T13:58:18.664Z,34.80
2022-09-05T14:01:18.278Z,34.80
2022-09-05T14:07:52.370Z,35.30
2022-09-05T14:10:51.168Z,35.30
2022-09-05T14:13:24.934Z,34.80
2022-09-05T14:15:59.008Z,34.30
2022-09-05T14:18:34.184Z,33.90
2022-09-05T14:21:17.483Z,33.90
2022-09-05T14:23:57.325Z,34.00
2022-09-05T14:26:32.001Z,33.90
2022-09-05T14:29:14.665Z,33.70
2022-09-05T14:36:14.993Z,33.80
2022-09-05T14:37:38.988Z,34.30
2022-09-05T14:38:13.722Z,34.50
2022-09-05T14:41:29.341Z,34.50
2022-09-05T14:44:27.596Z,34.60
2022-09-05T14:47:35.561Z,34.60
2022-09-05T14:50:29.120Z,34.80
2022-09-05T14:57:18.965Z,34.70
2022-09-05T15:02:45.163Z,34.70
2022-09-05T15:02:49.216Z,34.60
2022-09-05T15:04:57.365Z,34.10
2022-09-05T15:07:31.360Z,33.70
2022-09-05T15:12:18.702Z,33.50
2022-09-05T15:13:25.990Z,33.60
2022-09-05T15:16:07.260Z,33.50
2022-09-05T15:18:40.939Z,33.40
2022-09-05T15:21:33.360Z,33.20
2022-09-05T15:24:17.559Z,32.90
2022-09-05T15:26:53.327Z,32.50
2022-09-05T15:29:25.929Z,32.30
2022-09-05T15:32:08.939Z,32.00
2022-09-05T15:34:39.981Z,31.80
2022-09-05T15:37:24.848Z,31.50
2022-09-05T15:40:21.838Z,31.00
2022-09-05T15:42:55.829Z,30.50
2022-09-05T15:45:29.193Z,30.30
2022-09-05T15:48:12.650Z,30.10
2022-09-05T15:50:47.342Z,29.90
2022-09-05T15:53:25.700Z,29.70
2022-09-05T15:56:01.070Z,29.30
2022-09-05T15:58:52.854Z,28.90
2022-09-05T16:01:59.854Z,28.60
2022-09-05T16:09:00.169Z,28.20
2022-09-05T16:10:39.376Z,27.80
2022-09-05T16:10:47.146Z,27.50
2022-09-05T16:13:13.805Z,27.30
2022-09-05T16:23:13.544Z,27.00
2022-09-05T16:23:24.107Z,26.60
2022-09-05T16:23:30.084Z,26.40
2022-09-05T16:24:58.483Z,26.10
2022-09-05T16:27:43.503Z,25.90
2022-09-05T16:30:15.790Z,25.60
2022-09-05T16:32:56.502Z,25.40
2022-09-05T16:35:44.099Z,25.10
2022-09-05T16:38:33.171Z,25.00
2022-09-05T16:41:23.560Z,24.80
2022-09-05T16:43:56.138Z,24.60
2022-09-05T16:46:31.193Z,24.30
2022-09-05T16:49:12.107Z,24.10
2022-09-05T16:51:52.347Z,24.10
2022-09-05T16:54:31.235Z,24.00
2022-09-05T16:57:04.498Z,23.90
2022-09-05T16:59:37.248Z,23.90
2022-09-05T17:02:12.490Z,23.90
2022-09-05T17:05:02.906Z,23.80
2022-09-05T17:07:53.712Z,23.80
2022-09-05T17:10:29.700Z,23.80
2022-09-05T17:12:58.960Z,23.70
2022-09-05T17:15:36.446Z,23.60
2022-09-05T17:18:20.120Z,23.60
2022-09-05T17:20:57.585Z,23.60
2022-09-05T17:29:15.096Z,23.60
2022-09-05T17:29:30.092Z,23.50
2022-09-05T17:32:41.429Z,23.40
2022-09-05T17:35:42.860Z,23.30
2022-09-05T17:38:44.331Z,23.10
2022-09-05T17:41:38.503Z,23.00
2022-09-05T17:44:15.988Z,22.90
2022-09-05T17:46:52.750Z,22.80
2022-09-05T17:49:46.440Z,22.60
2022-09-05T17:52:24.266Z,22.50
2022-09-05T17:54:55.745Z,22.40
2022-09-05T17:57:45.358Z,22.40
2022-09-05T18:01:04.750Z,22.30
2022-09-05T18:04:17.322Z,22.20
2022-09-05T18:06:59.018Z,22.00
2022-09-05T18:09:58.984Z,21.90
2022-09-05T18:13:13.347Z,21.70
2022-09-05T18:16:13.316Z,21.60
2022-09-05T18:19:32.574Z,21.60
2022-09-05T18:21:51.750Z,21.40
2022-09-05T18:24:33.623Z,21.40
2022-09-05T18:30:36.314Z,21.20
2022-09-05T18:33:55.074Z,21.10
2022-09-05T18:36:35.911Z,21.00
2022-09-05T18:39:38.047Z,20.90
2022-09-05T18:42:26.568Z,20.80
2022-09-05T18:45:15.195Z,20.80
2022-09-05T18:47:57.151Z,20.70
2022-09-05T18:50:32.324Z,20.60
2022-09-05T18:53:09.290Z,20.60
2022-09-05T18:56:13.855Z,20.50
2022-09-05T18:58:51.539Z,20.50
2022-09-05T19:01:37.352Z,20.40
2022-09-05T19:04:40.457Z,20.30
2022-09-05T19:07:09.290Z,20.30
2022-09-05T19:09:59.261Z,20.20
2022-09-05T19:12:40.107Z,20.10
2022-09-05T19:15:24.847Z,20.00
2022-09-05T19:18:25.730Z,20.00
2022-09-05T19:21:16.717Z,19.90
2022-09-05T19:23:55.440Z,19.80
2022-09-05T19:26:25.601Z,19.80
2022-09-05T19:33:50.549Z,19.70
2022-09-05T19:36:49.646Z,19.50
2022-09-05T19:36:50.083Z,19.60
2022-09-05T19:37:42.873Z,19.50
2022-09-05T19:47:26.965Z,19.50
2022-09-05T19:47:30.332Z,19.50
2022-09-05T19:47:44.915Z,19.50
2022-09-05T19:49:07.616Z,19.50
2022-09-05T19:51:37.102Z,19.50
2022-09-05T19:54:07.690Z,19.50
2022-09-05T19:56:39.791Z,19.50
2022-09-05T19:59:18.488Z,19.40
2022-09-05T20:01:49.182Z,19.50
2022-09-05T20:04:19.139Z,19.50
2022-09-05T20:07:54.730Z,19.50
2022-09-05T20:10:30.362Z,19.50
2022-09-05T20:13:00.473Z,19.50
2022-09-05T20:15:36.407Z,19.40
2022-09-05T20:18:22.915Z,19.40
2022-09-05T20:20:57.995Z,19.40
2022-09-05T20:23:31.439Z,19.40
2022-09-05T20:26:03.672Z,19.30
2022-09-05T20:28:36.193Z,19.30
2022-09-05T20:31:08.689Z,19.30
2022-09-05T20:33:48.391Z,19.30
2022-09-05T20:43:08.561Z,19.30
2022-09-05T20:43:18.456Z,19.30
2022-09-05T20:43:28.822Z,19.20
2022-09-05T20:44:59.375Z,19.20
2022-09-05T20:50:28.673Z,19.10
2022-09-05T20:54:18.676Z,19.20
2022-09-05T20:54:26.553Z,19.20
2022-09-05T20:56:11.652Z,19.10
2022-09-05T20:58:41.993Z,19.10
2022-09-05T21:01:20.497Z,19.10
2022-09-05T21:03:56.952Z,19.00
2022-09-05T21:06:33.195Z,19.00
2022-09-05T21:09:25.379Z,19.00
2022-09-05T21:11:56.449Z,19.00
2022-09-05T21:14:29.622Z,19.00
2022-09-05T21:17:01.001Z,19.10
2022-09-05T21:19:37.714Z,19.00
2022-09-05T21:22:08.820Z,19.00
2022-09-05T21:24:37.812Z,19.10
2022-09-05T21:27:18.930Z,19.10
2022-09-05T21:29:58.816Z,19.10
2022-09-05T21:32:37.817Z,19.10
2022-09-05T21:35:33.882Z,19.10
2022-09-05T21:37:57.371Z,19.00
2022-09-05T21:40:26.131Z,19.00
2022-09-05T21:48:32.231Z,19.00
2022-09-05T21:51:06.063Z,19.00
2022-09-05T21:57:27.293Z,19.00
2022-09-05T21:59:24.053Z,19.00
2022-09-05T21:59:41.566Z,18.90
2022-09-05T22:02:16.864Z,18.80
2022-09-05T22:04:47.330Z,18.80
2022-09-05T22:07:32.336Z,18.70
2022-09-05T22:10:03.555Z,18.60
2022-09-05T22:12:36.164Z,18.60
2022-09-05T22:15:28.173Z,18.60
2022-09-05T22:18:16.263Z,18.60
2022-09-05T22:20:51.423Z,18.60
2022-09-05T22:23:39.949Z,18.50
2022-09-05T22:26:08.810Z,18.50
2022-09-05T22:28:46.510Z,18.50
2022-09-05T22:31:15.644Z,18.40
2022-09-05T22:33:44.491Z,18.40
2022-09-05T22:36:21.031Z,18.30
2022-09-05T22:38:50.060Z,18.20
2022-09-05T22:41:19.271Z,18.20
2022-09-05T22:43:59.241Z,18.20
2022-09-05T22:46:27.988Z,18.10
2022-09-05T22:48:56.748Z,18.20
2022-09-05T22:51:27.090Z,18.20
2022-09-05T22:53:55.680Z,18.20
2022-09-05T22:56:32.190Z,18.10
2022-09-05T22:59:01.115Z,18.00
2022-09-05T23:01:30.942Z,18.10
2022-09-05T23:03:59.709Z,18.10
2022-09-05T23:06:29.819Z,18.00
2022-09-05T23:08:58.599Z,18.00
2022-09-05T23:11:28.220Z,18.00
2022-09-05T23:13:56.878Z,17.90
2022-09-05T23:16:25.557Z,17.90
2022-09-05T23:18:54.177Z,17.90
2022-09-05T23:21:23.539Z,17.90
2022-09-05T23:23:53.750Z,17.90
2022-09-05T23:26:24.875Z,17.90
2022-09-05T23:28:53.509Z,17.80
2022-09-05T23:31:23.021Z,17.80
2022-09-05T23:33:52.043Z,17.80
2022-09-05T23:36:21.148Z,17.80
2022-09-05T23:38:49.778Z,17.80
2022-09-05T23:41:22.029Z,17.80
2022-09-05T23:43:50.681Z,17.70
2022-09-05T23:46:19.491Z,17.70
2022-09-05T23:48:48.199Z,17.70
2022-09-05T23:51:19.330Z,17.60
2022-09-05T23:53:48.000Z,17.60
2022-09-05T23:56:16.669Z,17.60
2022-09-05T23:58:46.819Z,17.50
